Terminal Aerodrome Forecast
Issued by NWS Des Moines, IA

Home | Current Version | Previous Version | Text Only | Print | Product List | Glossary On
Versions: 1 2 3 4 5 6 7 8 9 10 11 12 13 14 15 16 17 18 19 20 21 22 23 24 25 26 27 28 29 30 31 32 33 34
062
FTUS43 KDMX 231737
TAFDSM
TAF
KDSM 231737Z 2318/2418 14017G23KT P6SM SCT025 BKN035
      TEMPO 2318/2320 BKN030
     FM240000 15011KT P6SM SCT100 BKN250
     FM240600 17010KT P6SM BKN200 WS020/21045KT
     FM241100 18009KT P6SM BKN120
     FM241500 18009KT P6SM -RA SCT015 OVC040=

USA.gov is the U.S. government's official web portal to all federal, state and local government web resources and services.